CYMJ

Moose Jaw Air Vice Marshal C. M. McEwen Airport

Moose Jaw, Saskatchewan, Canada
METAR CYMJ 202300Z 02007KT 7SM FEW076 SCT230 23/03 A3024 RMK CU2CI2 FU SLP250
Observed Flight Rules
Aug-20 @ 23:00 UTC (an hour ago) Visual Flight Rules
Wind Visibility Clouds
20° at 7 knots 7 miles
  • Few at 7,600' AGL
  • Scattered at 23,000' AGL
Temperatures Readings
Current 23°C / 73°F
Dewpoint 3°C / 37°F
Humidity 27%
Altimeter 30.24" Hg
Pressure 1025 hPa
Elevation 577
METAR CYMJ 202300Z 02007KT 7SM FEW076 SCT230 23/03 A3024 RMK CU2CI2 FU SLP250
Observed Flight Rules
Aug-20 @ 23:00 UTC
(an hour ago)
VFR
Wind Visibility
20° at 7 knots 7 miles
Clouds
  • Few at 7,600' AGL
  • Scattered at 23,000' AGL
Temperature Dewpoint
23°C / 73°F 3°C / 37°F
Humidity Altimeter Pressure
27% 30.24" Hg 1025 hPa